Time;durP1;ratioP1;P1;durP2;ratioP2;P2;SDS_P1;SDS_P2;PMS_P1;PMS_P2;Temp;Humidity;BMP_temperature;BMP_pressure;BME280_temperature;BME280_humidity;BME280_pressure;Samples;Min_cycle;Max_cycle;Signal;HPM_P1;HPM_P2
2021/05/28 00:01:54;;;;;;;5.22;3.03;;;;;;;8.24;81.32;102412.19;5136713;27;20429;-40
2021/05/28 00:04:19;;;;;;;9.48;3.35;;;;;;;8.17;81.50;102408.53;5136645;27;20031;-40
2021/05/28 00:06:45;;;;;;;7.70;3.73;;;;;;;8.11;80.88;102403.88;5136253;27;20049;-40
2021/05/28 00:09:10;;;;;;;9.10;3.33;;;;;;;8.16;81.34;102407.69;5136920;27;20434;-39
2021/05/28 00:11:36;;;;;;;5.90;3.30;;;;;;;8.12;81.52;102413.63;5136193;27;20517;-40
2021/05/28 00:14:02;;;;;;;7.27;3.33;;;;;;;8.15;82.31;102406.03;5136675;27;20115;-39
2021/05/28 00:16:27;;;;;;;6.45;3.60;;;;;;;8.10;82.38;102416.50;5136141;27;20070;-40
2021/05/28 00:18:53;;;;;;;6.77;3.60;;;;;;;8.07;82.16;102421.38;5136235;27;20374;-39
2021/05/28 00:21:18;;;;;;;8.00;3.47;;;;;;;8.03;81.44;102415.50;5135917;27;20023;-40
2021/05/28 00:23:43;;;;;;;6.67;3.40;;;;;;;7.96;81.18;102430.72;5136180;27;20048;-40
2021/05/28 00:26:10;;;;;;;5.10;2.90;;;;;;;7.92;80.71;102418.59;5136182;27;20038;-39
2021/05/28 00:28:35;;;;;;;7.78;3.72;;;;;;;7.84;81.46;102422.16;5136087;27;20110;-40
2021/05/28 00:31:00;;;;;;;8.83;4.60;;;;;;;7.81;80.86;102418.97;5135999;27;20501;-39
2021/05/28 00:33:26;;;;;;;5.43;3.30;;;;;;;7.78;81.08;102417.47;5136261;27;20023;-39
2021/05/28 00:35:51;;;;;;;5.95;2.97;;;;;;;7.70;80.83;102418.31;5135975;27;20051;-40
2021/05/28 00:38:17;;;;;;;5.33;3.27;;;;;;;7.73;80.99;102414.47;5135642;27;20023;-40
2021/05/28 00:40:42;;;;;;;6.70;3.53;;;;;;;7.73;81.68;102419.84;5136097;27;20023;-39
2021/05/28 00:43:08;;;;;;;6.27;3.40;;;;;;;7.68;81.97;102412.28;5136037;27;20205;-40
2021/05/28 00:45:33;;;;;;;7.90;3.67;;;;;;;7.65;81.07;102417.16;5134723;27;20427;-40
2021/05/28 00:47:58;;;;;;;5.73;3.63;;;;;;;7.60;79.87;102420.38;5135755;27;20031;-39
2021/05/28 00:50:29;;;;;;;9.40;3.77;;;;;;;7.49;81.79;102413.53;5135891;27;20023;-40
2021/05/28 00:52:56;;;;;;;6.97;3.97;;;;;;;7.47;81.49;102418.25;5136333;27;20080;-40
2021/05/28 00:55:23;;;;;;;7.15;3.40;;;;;;;7.44;82.25;102421.28;5134755;27;20024;-39
2021/05/28 00:57:48;;;;;;;8.63;3.65;;;;;;;7.43;81.39;102419.59;5135127;27;20061;-39
2021/05/28 01:00:14;;;;;;;10.27;3.77;;;;;;;7.35;80.79;102416.91;5136157;27;20047;-39
2021/05/28 01:02:39;;;;;;;6.53;3.05;;;;;;;7.37;82.13;102417.59;5136256;27;20261;-39
2021/05/28 01:05:05;;;;;;;8.53;4.17;;;;;;;7.32;81.62;102411.03;5135695;27;20520;-40
2021/05/28 01:07:31;;;;;;;7.88;3.67;;;;;;;7.29;81.98;102416.75;5135588;27;20023;-40
2021/05/28 01:09:56;;;;;;;6.97;3.75;;;;;;;7.28;81.72;102415.94;5135527;27;20087;-40
2021/05/28 01:12:22;;;;;;;6.07;3.83;;;;;;;7.29;81.46;102417.59;5135459;27;20051;-40
2021/05/28 01:14:50;;;;;;;5.40;3.13;;;;;;;7.36;82.35;102425.81;5135410;27;20015;-40
2021/05/28 01:17:16;;;;;;;7.38;3.63;;;;;;;7.33;82.33;102424.34;5135051;27;20080;-40
2021/05/28 01:19:41;;;;;;;5.65;3.67;;;;;;;7.35;83.12;102430.38;5135588;27;20031;-40
2021/05/28 01:22:08;;;;;;;6.37;3.87;;;;;;;7.27;82.05;102419.63;5135876;27;20031;-40
2021/05/28 01:24:34;;;;;;;5.97;3.60;;;;;;;7.28;81.33;102426.69;5135017;27;20023;-40
2021/05/28 01:27:00;;;;;;;5.35;3.72;;;;;;;7.26;82.83;102417.09;5134889;27;20033;-40
2021/05/28 01:29:25;;;;;;;4.82;3.85;;;;;;;7.21;82.43;102421.13;5134901;27;20083;-40
2021/05/28 01:31:51;;;;;;;6.37;3.77;;;;;;;7.17;82.05;102430.59;5135028;27;20023;-40
2021/05/28 01:34:17;;;;;;;8.98;4.40;;;;;;;7.18;82.90;102426.03;5135072;27;20056;-40
2021/05/28 01:36:42;;;;;;;6.93;3.60;;;;;;;7.18;81.66;102428.72;5134494;27;20399;-40
2021/05/28 01:39:08;;;;;;;5.67;3.90;;;;;;;7.12;81.63;102432.91;5134526;27;20016;-40
2021/05/28 01:41:33;;;;;;;7.47;3.70;;;;;;;7.13;81.86;102429.25;5134594;27;20388;-40
2021/05/28 01:43:58;;;;;;;6.77;4.00;;;;;;;7.15;81.97;102426.38;5134691;27;20318;-40
2021/05/28 01:46:24;;;;;;;6.10;4.03;;;;;;;7.04;81.84;102426.72;5134955;27;20034;-41
2021/05/28 01:48:50;;;;;;;4.43;3.88;;;;;;;7.06;81.99;102425.53;5134497;27;20019;-41
2021/05/28 01:51:16;;;;;;;7.28;4.32;;;;;;;6.97;81.23;102430.06;5134715;27;20054;-40
2021/05/28 01:53:41;;;;;;;5.05;3.70;;;;;;;6.88;80.61;102431.09;5135040;27;20015;-40
2021/05/28 01:56:07;;;;;;;10.00;5.10;;;;;;;6.90;81.58;102417.47;5135095;27;20091;-40
2021/05/28 01:58:32;;;;;;;7.87;4.07;;;;;;;6.84;81.64;102423.53;5134079;27;20268;-40
2021/05/28 02:00:58;;;;;;;6.27;3.73;;;;;;;6.91;81.52;102419.16;5134454;27;20043;-40
2021/05/28 02:03:25;;;;;;;5.70;3.67;;;;;;;6.84;82.27;102416.31;5134654;27;20072;-40
2021/05/28 02:05:52;;;;;;;6.95;3.80;;;;;;;6.79;81.73;102421.34;5134592;27;20436;-40
2021/05/28 02:08:17;;;;;;;7.10;3.75;;;;;;;6.78;81.42;102424.19;5134623;27;20099;-40
2021/05/28 02:10:44;;;;;;;6.00;3.60;;;;;;;6.79;81.26;102429.41;5134525;27;20045;-40
2021/05/28 02:13:09;;;;;;;4.93;3.83;;;;;;;6.71;80.90;102424.03;5134220;27;20104;-40
2021/05/28 02:15:35;;;;;;;6.93;4.40;;;;;;;6.74;81.54;102426.38;5134540;27;20415;-40
2021/05/28 02:18:01;;;;;;;7.20;4.03;;;;;;;6.70;81.46;102425.03;5134187;28;20459;-40
2021/05/28 02:20:26;;;;;;;6.18;4.38;;;;;;;6.64;81.21;102431.91;5134453;28;20167;-40
2021/05/28 02:22:52;;;;;;;7.60;4.20;;;;;;;6.59;80.98;102422.69;5134126;28;20047;-40
2021/05/28 02:25:18;;;;;;;9.43;4.10;;;;;;;6.52;81.04;102427.03;5137185;27;20253;-40
2021/05/28 02:27:44;;;;;;;5.55;3.90;;;;;;;6.47;81.33;102437.44;5138624;27;20084;-40
2021/05/28 02:30:10;;;;;;;;;;;;;;;6.64;81.11;102423.03;5139050;27;20027;-40
2021/05/28 02:32:36;;;;;;;7.18;4.22;;;;;;;6.49;81.67;102430.03;5138519;27;19911;-42
2021/05/28 02:35:02;;;;;;;8.40;4.40;;;;;;;6.47;80.64;102427.50;5138617;27;20556;-39
2021/05/28 02:37:29;;;;;;;8.93;4.25;;;;;;;6.41;80.38;102433.56;5138176;27;20393;-38
2021/05/28 02:39:54;;;;;;;7.30;4.25;;;;;;;6.39;79.92;102436.41;5138162;27;20031;-38
2021/05/28 02:42:20;;;;;;;9.00;5.03;;;;;;;6.41;81.76;102437.09;5138439;27;20037;-38
2021/05/28 02:44:45;;;;;;;7.40;3.97;;;;;;;6.44;81.51;102439.44;5137800;27;20106;-38
2021/05/28 02:47:10;;;;;;;5.67;4.03;;;;;;;6.47;82.14;102442.81;5136760;27;20034;-38
2021/05/28 02:49:36;;;;;;;8.10;4.40;;;;;;;6.51;81.93;102457.59;5138258;27;20035;-38
2021/05/28 02:52:05;;;;;;;5.97;4.25;;;;;;;6.48;82.94;102456.06;5137945;27;20024;-38
2021/05/28 02:54:31;;;;;;;6.80;4.63;;;;;;;6.44;82.99;102457.41;5138451;27;20023;-38
2021/05/28 02:56:56;;;;;;;6.10;4.28;;;;;;;6.42;82.42;102457.56;5138149;27;20079;-39
2021/05/28 02:59:22;;;;;;;7.70;4.55;;;;;;;6.40;82.88;102462.28;5138444;27;20056;-38
2021/05/28 03:01:48;;;;;;;6.05;4.45;;;;;;;6.37;81.89;102459.91;5137894;27;20043;-38
2021/05/28 03:04:14;;;;;;;7.50;4.13;;;;;;;6.39;82.37;102462.41;5137804;27;20035;-38
2021/05/28 03:06:40;;;;;;;6.45;4.05;;;;;;;6.35;82.00;102464.63;5137676;27;20394;-38
2021/05/28 03:09:06;;;;;;;8.35;4.65;;;;;;;6.37;82.60;102465.28;5137942;27;20028;-38
2021/05/28 03:11:31;;;;;;;4.95;4.40;;;;;;;6.39;82.39;102468.66;5137706;27;20030;-40
2021/05/28 03:13:57;;;;;;;6.43;4.10;;;;;;;6.42;82.26;102472.84;5138107;27;20381;-41
2021/05/28 03:16:22;;;;;;;6.23;4.13;;;;;;;6.36;81.36;102474.34;5138112;27;20106;-39
2021/05/28 03:18:53;;;;;;;9.37;4.43;;;;;;;6.35;82.50;102477.22;5137139;27;20034;-38
2021/05/28 03:23:58;;;;;;;5.88;4.15;;;;;;;6.36;81.93;102474.34;5137918;27;20031;-39
2021/05/28 03:26:25;;;;;;;8.88;4.63;;;;;;;6.25;82.94;102481.88;5137620;27;20035;-38
2021/05/28 03:28:52;;;;;;;6.20;4.03;;;;;;;6.29;81.97;102483.22;5137179;27;20038;-38
2021/05/28 03:31:17;;;;;;;5.90;4.40;;;;;;;6.29;82.87;102486.75;5137706;27;20023;-38
2021/05/28 03:33:43;;;;;;;7.63;4.50;;;;;;;6.33;83.39;102482.72;5137384;27;20080;-38
2021/05/28 03:36:09;;;;;;;5.97;4.35;;;;;;;6.39;83.38;102482.09;5136191;27;20130;-38
2021/05/28 03:38:35;;;;;;;8.23;4.82;;;;;;;6.40;83.47;102482.94;5137078;27;20046;-39
2021/05/28 03:41:01;;;;;;;5.80;4.33;;;;;;;6.48;83.93;102484.78;5137647;27;20059;-39
2021/05/28 03:43:26;;;;;;;6.55;4.97;;;;;;;6.55;83.63;102475.09;5137002;27;20076;-39
2021/05/28 03:45:52;;;;;;;9.93;5.80;;;;;;;6.66;83.89;102493.56;5136707;27;20031;-39
2021/05/28 03:48:18;;;;;;;8.38;5.88;;;;;;;6.72;84.46;102487.53;5136869;27;20030;-39
2021/05/28 03:50:44;;;;;;;13.82;5.85;;;;;;;6.74;84.67;102498.13;5136435;27;20027;-39
2021/05/28 03:53:09;;;;;;;18.13;8.63;;;;;;;6.75;84.83;102500.66;5136737;27;20023;-39
2021/05/28 03:55:35;;;;;;;14.23;6.53;;;;;;;6.91;85.24;102505.22;5137363;27;20038;-39
2021/05/28 03:58:00;;;;;;;16.30;8.30;;;;;;;6.96;85.65;102509.06;5137437;27;20065;-39
2021/05/28 04:00:26;;;;;;;14.10;7.32;;;;;;;6.94;86.33;102503.03;5136980;27;20459;-40
2021/05/28 04:02:52;;;;;;;18.15;8.35;;;;;;;6.99;85.44;102502.53;5137134;27;20058;-40
2021/05/28 04:05:18;;;;;;;;;;;;;;;7.13;84.19;102493.81;5137278;27;20034;-39
2021/05/28 04:07:43;;;;;;;31.88;9.70;;;;;;;7.15;85.80;102501.69;5136549;27;19911;-40
2021/05/28 04:10:09;;;;;;;23.10;8.60;;;;;;;7.13;86.43;102490.28;5136698;27;20431;-40
2021/05/28 04:12:34;;;;;;;19.27;7.97;;;;;;;7.17;86.55;102495.16;5135993;27;20514;-40
2021/05/28 04:15:00;;;;;;;27.00;8.90;;;;;;;7.21;86.61;102493.78;5135662;27;20125;-39
2021/05/28 04:17:25;;;;;;;15.20;8.87;;;;;;;7.32;86.62;102502.53;5136003;27;20053;-40
2021/05/28 04:19:51;;;;;;;39.30;11.07;;;;;;;7.27;86.97;102499.50;5136637;27;20027;-40
2021/05/28 04:22:16;;;;;;;35.43;7.77;;;;;;;7.41;87.06;102505.03;5136790;27;20031;-39
2021/05/28 04:24:41;;;;;;;47.07;10.20;;;;;;;7.32;87.15;102503.38;5136153;27;20079;-40
2021/05/28 04:27:07;;;;;;;54.53;9.10;;;;;;;7.39;87.53;102509.75;5136165;27;20030;-39
2021/05/28 04:29:32;;;;;;;107.47;10.33;;;;;;;7.32;87.75;102498.00;5135801;27;20022;-39
2021/05/28 04:31:57;;;;;;;20.93;7.73;;;;;;;7.51;87.85;102510.25;5135811;27;20030;-39
2021/05/28 04:34:23;;;;;;;78.10;9.80;;;;;;;7.45;88.17;102510.94;5136253;27;20024;-40
2021/05/28 04:36:48;;;;;;;49.80;8.73;;;;;;;7.47;88.47;102507.06;5135604;27;20027;-39
2021/05/28 04:39:14;;;;;;;38.07;8.53;;;;;;;7.52;88.51;102517.34;5135718;27;20110;-39
2021/05/28 04:41:40;;;;;;;52.37;8.47;;;;;;;7.57;88.13;102522.22;5136348;27;20141;-40
2021/05/28 04:44:05;;;;;;;;;;;;;;;7.66;86.93;102521.16;5136315;27;20024;-40
2021/05/28 04:46:31;;;;;;;60.38;9.15;;;;;;;7.57;88.13;102530.28;5135508;27;19907;-40
2021/05/28 04:48:56;;;;;;;28.30;8.20;;;;;;;7.58;88.74;102523.88;5136257;27;20124;-40
2021/05/28 04:51:21;;;;;;;89.10;9.77;;;;;;;7.49;88.67;102529.25;5135934;27;20023;-40
2021/05/28 04:53:47;;;;;;;38.97;7.87;;;;;;;7.54;88.55;102530.63;5135354;27;20026;-40
2021/05/28 04:56:12;;;;;;;32.10;8.20;;;;;;;7.55;89.29;102526.91;5135902;27;20027;-40
2021/05/28 04:58:37;;;;;;;44.80;8.40;;;;;;;7.48;89.00;102527.59;5135237;27;20031;-40
2021/05/28 05:01:04;;;;;;;19.80;8.17;;;;;;;7.52;89.09;102530.78;5135410;27;20467;-40
2021/05/28 05:03:29;;;;;;;;;;;;;;;7.60;88.76;102533.47;5135633;27;20054;-40
2021/05/28 05:05:54;;;;;;;37.57;8.13;;;;;;;7.59;89.20;102536.31;5135420;27;19962;-40
2021/05/28 05:08:20;;;;;;;43.30;9.00;;;;;;;7.58;88.85;102535.50;5135853;27;20092;-40
2021/05/28 05:10:45;;;;;;;35.13;8.70;;;;;;;7.57;89.45;102541.06;5135029;27;20080;-40
2021/05/28 05:13:14;;;;;;;39.03;7.77;;;;;;;7.56;89.14;102534.81;5135205;27;20027;-40
2021/05/28 05:15:40;;;;;;;28.02;8.45;;;;;;;7.62;89.29;102541.38;5135160;27;20027;-40
2021/05/28 05:18:06;;;;;;;49.50;8.02;;;;;;;7.60;89.13;102538.84;5135135;27;20100;-40
2021/05/28 05:20:33;;;;;;;43.00;8.25;;;;;;;7.59;88.50;102547.94;5133983;27;20448;-40
2021/05/28 05:22:58;;;;;;;36.65;7.25;;;;;;;7.63;88.68;102543.06;5134713;27;20027;-40
2021/05/28 05:25:23;;;;;;;43.27;8.63;;;;;;;7.60;89.51;102551.47;5135331;27;20072;-40
2021/05/28 05:27:48;;;;;;;22.27;8.03;;;;;;;7.73;89.70;102549.94;5135276;27;20155;-40
2021/05/28 05:30:14;;;;;;;19.67;7.27;;;;;;;7.75;88.83;102544.38;5134883;27;20177;-40
2021/05/28 05:32:40;;;;;;;32.42;8.25;;;;;;;7.59;89.68;102558.69;5134774;27;20031;-40
2021/05/28 05:35:06;;;;;;;11.13;7.30;;;;;;;7.67;89.78;102561.41;5135445;27;20023;-40
2021/05/28 05:37:31;;;;;;;24.60;8.23;;;;;;;7.71;89.65;102557.34;5134487;27;20023;-40
2021/05/28 05:39:57;;;;;;;14.40;8.07;;;;;;;7.72;89.28;102563.59;5135394;27;20110;-40
2021/05/28 05:42:22;;;;;;;29.93;7.83;;;;;;;7.60;88.86;102570.31;5134769;27;20437;-40
2021/05/28 05:44:47;;;;;;;29.20;8.03;;;;;;;7.55;89.00;102570.81;5134655;27;20027;-41
2021/05/28 05:47:13;;;;;;;10.73;8.40;;;;;;;7.67;89.14;102576.72;5135397;27;20072;-40
2021/05/28 05:49:38;;;;;;;19.17;7.87;;;;;;;7.73;89.00;102573.34;5135145;27;20408;-40
2021/05/28 05:52:04;;;;;;;26.47;7.67;;;;;;;7.81;88.70;102567.94;5134710;27;20026;-40
2021/05/28 05:54:30;;;;;;;24.63;7.95;;;;;;;7.79;89.44;102572.66;5135380;27;20062;-40
2021/05/28 05:56:56;;;;;;;20.35;8.02;;;;;;;7.84;88.93;102578.38;5134125;27;20053;-40
2021/05/28 05:59:21;;;;;;;14.83;8.73;;;;;;;7.76;88.77;102583.78;5134036;27;20038;-40
2021/05/28 06:01:47;;;;;;;10.13;8.70;;;;;;;7.71;89.77;102583.41;5134002;27;20292;-40
2021/05/28 06:04:12;;;;;;;16.80;8.40;;;;;;;7.63;89.70;102578.06;5134994;27;20102;-40
2021/05/28 06:06:37;;;;;;;13.80;8.50;;;;;;;7.75;89.56;102584.75;5135151;27;20269;-41
2021/05/28 06:09:03;;;;;;;9.20;8.07;;;;;;;7.91;90.04;102590.16;5134380;27;20351;-41
2021/05/28 06:11:29;;;;;;;12.38;7.57;;;;;;;7.80;88.66;102585.09;5134094;27;20103;-40
2021/05/28 06:13:54;;;;;;;8.97;6.80;;;;;;;7.95;89.01;102590.63;5134265;27;20101;-40
2021/05/28 06:16:19;;;;;;;9.63;8.07;;;;;;;8.03;88.93;102587.09;5133983;27;20027;-40
2021/05/28 06:18:45;;;;;;;12.27;8.10;;;;;;;8.07;88.77;102589.28;5134690;27;20034;-40
2021/05/28 06:21:10;;;;;;;10.13;8.70;;;;;;;8.05;89.12;102590.44;5133755;27;20039;-40
2021/05/28 06:23:35;;;;;;;11.30;7.70;;;;;;;8.06;87.42;102586.75;5133846;28;20055;-40
2021/05/28 06:26:01;;;;;;;12.57;8.90;;;;;;;7.99;88.09;102590.13;5134403;28;20107;-40
2021/05/28 06:28:27;;;;;;;11.95;8.75;;;;;;;8.11;88.14;102596.00;5134086;28;20020;-41
2021/05/28 06:30:54;;;;;;;12.15;7.72;;;;;;;8.18;87.98;102596.16;5134024;28;20458;-40
2021/05/28 06:33:19;;;;;;;12.23;8.10;;;;;;;8.03;87.11;102603.25;5134512;28;20034;-39
2021/05/28 06:35:45;;;;;;;11.00;9.10;;;;;;;8.18;87.55;102602.38;5134531;28;20027;-40
2021/05/28 06:38:10;;;;;;;10.87;8.13;;;;;;;8.12;86.86;102603.06;5133995;28;20118;-40
2021/05/28 06:40:37;;;;;;;12.03;9.33;;;;;;;8.17;87.15;102597.16;5134576;28;20034;-40
2021/05/28 06:43:03;;;;;;;11.10;9.77;;;;;;;8.23;87.53;102600.00;5134408;28;20039;-40
2021/05/28 06:45:28;;;;;;;8.77;7.78;;;;;;;8.25;86.88;102602.53;5134211;28;20027;-40
2021/05/28 06:47:54;;;;;;;12.23;8.97;;;;;;;8.38;87.03;102596.63;5133632;28;20031;-40
2021/05/28 06:50:19;;;;;;;10.30;8.33;;;;;;;8.37;86.20;102598.47;5134600;28;20273;-41
2021/05/28 06:52:46;;;;;;;11.00;8.83;;;;;;;8.38;86.86;102607.41;5134197;28;20034;-41
2021/05/28 06:55:12;;;;;;;12.25;8.65;;;;;;;8.54;86.84;102614.59;5134130;27;20257;-40
2021/05/28 06:57:38;;;;;;;10.88;9.00;;;;;;;8.58;86.11;102613.22;5133524;28;20058;-40
2021/05/28 07:00:08;;;;;;;11.85;8.00;;;;;;;8.62;85.96;102612.72;5133635;28;20055;-40
2021/05/28 07:02:35;;;;;;;10.20;8.20;;;;;;;8.66;85.21;102615.91;5133939;28;20054;-39
2021/05/28 07:05:00;;;;;;;;;;;;;;;8.87;85.68;102616.13;5134898;28;20447;-39
2021/05/28 07:07:26;;;;;;;10.20;7.75;;;;;;;8.79;84.89;102621.59;5133638;28;19927;-39
2021/05/28 07:09:51;;;;;;;10.17;8.20;;;;;;;8.85;84.98;102617.34;5133337;27;20030;-39
2021/05/28 07:12:16;;;;;;;11.60;8.37;;;;;;;8.97;85.22;102618.59;5136258;27;20027;-40
2021/05/28 07:14:42;;;;;;;11.40;8.90;;;;;;;8.90;84.31;102618.47;5138213;27;20023;-40
2021/05/28 07:17:07;;;;;;;10.90;9.37;;;;;;;8.94;84.90;102621.69;5137726;27;20391;-39
2021/05/28 07:19:32;;;;;;;10.10;8.53;;;;;;;8.75;83.68;102617.56;5137524;27;20243;-40
2021/05/28 07:21:58;;;;;;;11.30;9.83;;;;;;;8.93;84.73;102619.97;5138022;27;20031;-40
2021/05/28 07:24:23;;;;;;;11.07;9.33;;;;;;;8.83;84.56;102622.06;5138056;27;20407;-40
2021/05/28 07:26:49;;;;;;;10.50;8.90;;;;;;;9.02;84.35;102622.44;5136246;27;20765;-39
2021/05/28 07:29:15;;;;;;;12.82;10.48;;;;;;;9.25;85.83;102617.09;5137495;27;20026;-40
2021/05/28 07:31:40;;;;;;;10.30;9.20;;;;;;;9.31;83.79;102629.03;5136883;27;20384;-40
2021/05/28 07:34:06;;;;;;;12.15;10.48;;;;;;;9.23;82.85;102631.81;5137481;27;20023;-40
2021/05/28 07:36:31;;;;;;;12.70;9.33;;;;;;;9.42;83.73;102619.66;5137408;27;20034;-40
2021/05/28 07:38:56;;;;;;;12.87;10.83;;;;;;;9.42;83.09;102620.53;5137375;27;20106;-40
2021/05/28 07:41:22;;;;;;;10.83;9.73;;;;;;;9.58;83.25;102629.53;5137248;27;20060;-40
2021/05/28 07:43:47;;;;;;;16.23;10.33;;;;;;;9.52;81.77;102620.28;5137622;27;20030;-39
2021/05/28 07:46:13;;;;;;;10.90;9.20;;;;;;;9.80;82.27;102634.03;5136950;27;20248;-40
2021/05/28 07:48:39;;;;;;;10.60;9.35;;;;;;;10.14;82.07;102630.03;5137060;27;20023;-41
2021/05/28 07:51:04;;;;;;;9.93;8.90;;;;;;;10.51;80.43;102631.84;5136781;27;20412;-40
2021/05/28 07:53:30;;;;;;;9.73;8.73;;;;;;;10.78;79.79;102619.50;5136724;27;20038;-41
2021/05/28 07:55:59;;;;;;;9.77;8.75;;;;;;;11.11;78.25;102619.06;5136974;27;20038;-40
2021/05/28 07:58:26;;;;;;;9.52;8.23;;;;;;;11.27;78.46;102616.97;5136853;27;20023;-40
2021/05/28 08:00:51;;;;;;;8.40;7.57;;;;;;;11.32;77.47;102616.34;5136375;27;20019;-48
2021/05/28 08:03:16;;;;;;;8.80;7.27;;;;;;;11.35;76.86;102603.28;5137090;27;20067;-41
2021/05/28 08:05:43;;;;;;;9.55;7.07;;;;;;;11.40;77.30;102610.00;5137401;27;20019;-39
2021/05/28 08:08:10;;;;;;;11.20;7.30;;;;;;;11.45;76.49;102616.50;5136466;27;20387;-40
2021/05/28 08:10:36;;;;;;;8.57;7.05;;;;;;;11.45;76.35;102608.38;5136694;27;20105;-40
2021/05/28 08:13:02;;;;;;;7.55;6.82;;;;;;;11.67;76.79;102608.38;5136752;27;20453;-40
2021/05/28 08:15:27;;;;;;;8.45;7.03;;;;;;;11.52;74.73;102612.00;5137277;27;20152;-40
2021/05/28 08:17:53;;;;;;;7.75;6.82;;;;;;;11.47;74.85;102611.75;5135993;27;20019;-40
2021/05/28 08:20:18;;;;;;;9.27;6.90;;;;;;;11.48;75.24;102604.44;5136643;27;20030;-40
2021/05/28 08:22:44;;;;;;;6.80;6.20;;;;;;;11.74;74.11;102614.69;5135848;27;20276;-40
2021/05/28 08:25:10;;;;;;;;;;;;;;;12.01;76.19;102608.47;5136677;27;20774;-40
2021/05/28 08:27:36;;;;;;;6.63;5.95;;;;;;;12.02;72.50;102603.88;5136220;27;19907;-40
2021/05/28 08:30:01;;;;;;;6.83;4.67;;;;;;;12.13;71.73;102603.31;5136021;27;20027;-40
2021/05/28 08:32:26;;;;;;;6.77;5.10;;;;;;;12.19;71.72;102607.13;5135750;27;20665;-40
2021/05/28 08:34:52;;;;;;;6.53;5.77;;;;;;;12.33;69.76;102614.28;5136381;27;20057;-41
2021/05/28 08:37:17;;;;;;;6.23;5.23;;;;;;;12.30;70.41;102606.59;5136197;27;20459;-40
2021/05/28 08:39:43;;;;;;;6.17;5.37;;;;;;;12.46;70.83;102602.69;5136492;27;20359;-40
2021/05/28 08:42:11;;;;;;;;;;;;;;;12.71;72.03;102601.13;5136143;27;20093;-40
2021/05/28 08:44:37;;;;;;;9.80;5.55;;;;;;;12.65;70.12;102596.53;5136624;27;19959;-40
2021/05/28 08:47:03;;;;;;;5.90;5.30;;;;;;;12.82;70.06;102597.00;5135787;27;20027;-40
2021/05/28 08:49:29;;;;;;;5.90;5.20;;;;;;;13.08;69.55;102590.84;5136532;27;20041;-40
2021/05/28 08:51:57;;;;;;;6.75;5.40;;;;;;;13.14;69.15;102596.28;5135401;27;20058;-40
2021/05/28 08:54:22;;;;;;;6.97;5.20;;;;;;;13.33;70.75;102591.97;5134021;27;20410;-40
2021/05/28 08:56:49;;;;;;;7.43;5.70;;;;;;;13.49;70.04;102595.31;5135654;27;20023;-40
2021/05/28 08:59:15;;;;;;;6.45;5.40;;;;;;;13.46;68.65;102601.97;5135564;27;20268;-40
2021/05/28 09:01:40;;;;;;;6.27;5.00;;;;;;;13.45;66.63;102594.88;5135346;27;20096;-40
2021/05/28 09:04:07;;;;;;;6.07;4.83;;;;;;;13.33;66.10;102596.56;5135984;27;20292;-40
2021/05/28 09:06:41;;;;;;;7.03;5.13;;;;;;;13.35;68.88;102608.88;5136187;27;20368;-40
2021/05/28 09:09:13;;;;;;;8.02;5.38;;;;;;;13.25;66.67;102599.47;5135325;27;20022;-40
2021/05/28 09:11:52;;;;;;;5.45;4.90;;;;;;;13.62;65.86;102598.88;5136012;27;20027;-40
2021/05/28 09:14:38;;;;;;;6.30;4.82;;;;;;;13.88;67.61;102584.44;5135180;27;20053;-40
2021/05/28 09:17:06;;;;;;;5.13;4.63;;;;;;;14.10;66.29;102578.75;5136365;27;20029;-40
2021/05/28 09:19:34;;;;;;;7.40;4.82;;;;;;;14.26;65.98;102563.88;5135075;27;20062;-40
2021/05/28 09:22:03;;;;;;;5.00;4.20;;;;;;;14.31;65.04;102580.38;5135399;27;20027;-40
2021/05/28 09:24:34;;;;;;;5.90;4.35;;;;;;;14.24;64.66;102572.22;5134679;27;20514;-40
2021/05/28 09:27:26;;;;;;;6.28;4.68;;;;;;;14.11;63.93;102584.00;5136151;27;20027;-40
2021/05/28 09:30:10;;;;;;;4.88;4.13;;;;;;;14.11;63.71;102575.81;5134904;27;20455;-40
2021/05/28 09:32:38;;;;;;;5.63;5.13;;;;;;;14.36;65.22;102569.69;5135175;27;20031;-40
2021/05/28 09:35:08;;;;;;;6.07;5.20;;;;;;;14.51;65.41;102564.84;5134352;27;20035;-40
2021/05/28 09:37:40;;;;;;;6.60;5.55;;;;;;;14.58;65.56;102567.53;5134669;27;20024;-40
2021/05/28 09:40:08;;;;;;;5.82;4.90;;;;;;;14.37;63.61;102574.06;5134719;27;20027;-40
2021/05/28 09:42:48;;;;;;;7.18;5.05;;;;;;;14.77;65.36;102568.50;5133067;27;20486;-41
2021/05/28 09:45:36;;;;;;;6.03;4.90;;;;;;;14.83;65.25;102571.19;5135368;27;20413;-40
2021/05/28 09:48:31;;;;;;;5.75;5.07;;;;;;;14.71;62.56;102569.38;5133838;27;20386;-40
2021/05/28 09:50:56;;;;;;;6.68;5.38;;;;;;;14.39;63.00;102561.06;5112030;28;20221;-41
2021/05/28 09:53:32;;;;;;;7.33;6.33;;;;;;;14.38;63.71;102564.84;5111804;28;20181;-40
2021/05/28 09:55:59;;;;;;;6.70;5.82;;;;;;;14.54;64.05;102558.13;5111783;28;20027;-40
2021/05/28 09:58:25;;;;;;;7.07;6.28;;;;;;;14.56;62.90;102553.31;5111501;28;20093;-41
2021/05/28 10:00:51;;;;;;;6.45;5.68;;;;;;;14.66;63.86;102557.25;5111360;28;20097;-40
2021/05/28 10:03:23;;;;;;;7.32;5.32;;;;;;;14.79;64.56;102550.06;5111893;28;20457;-40
2021/05/28 10:05:55;;;;;;;6.72;5.60;;;;;;;15.01;62.27;102547.84;5111914;28;20042;-40
2021/05/28 10:08:23;;;;;;;6.60;5.47;;;;;;;15.09;62.14;102545.69;5111714;28;20039;-40
2021/05/28 10:10:50;;;;;;;6.40;5.60;;;;;;;15.08;60.55;102554.94;5111370;28;20536;-40
2021/05/28 10:13:18;;;;;;;5.80;5.20;;;;;;;15.03;59.88;102556.63;5111617;28;20031;-40
2021/05/28 10:15:50;;;;;;;6.60;4.95;;;;;;;15.40;59.92;102546.72;5111509;28;20043;-40
2021/05/28 10:18:16;;;;;;;5.25;4.75;;;;;;;15.67;60.33;102540.03;5111318;28;20084;-40
2021/05/28 10:20:47;;;;;;;4.30;3.90;;;;;;;15.87;58.48;102536.28;5111706;28;20491;-40
2021/05/28 10:23:15;;;;;;;5.43;3.90;;;;;;;16.12;58.64;102537.03;5111506;28;20116;-40
2021/05/28 10:25:41;;;;;;;6.45;4.90;;;;;;;16.20;58.72;102541.34;5111711;28;20036;-40
2021/05/28 10:28:14;;;;;;;5.18;4.68;;;;;;;16.00;57.55;102547.03;5112607;28;20491;-40
2021/05/28 10:30:42;;;;;;;5.18;4.60;;;;;;;15.94;56.08;102537.84;5114099;28;20462;-40
2021/05/28 10:33:23;;;;;;;4.63;3.85;;;;;;;15.89;57.14;102540.44;5113205;28;20080;-40
2021/05/28 10:35:51;;;;;;;4.95;3.90;;;;;;;15.70;57.12;102546.91;5114072;28;20032;-40
2021/05/28 10:38:41;;;;;;;6.05;3.90;;;;;;;15.91;61.03;102540.22;5113444;28;20058;-40
2021/05/28 10:41:06;;;;;;;4.50;3.97;;;;;;;15.69;58.09;102535.16;5114314;28;20031;-40
2021/05/28 10:43:36;;;;;;;4.90;4.10;;;;;;;15.81;58.89;102526.25;5113468;28;20429;-40
2021/05/28 10:46:02;;;;;;;4.47;3.90;;;;;;;16.01;58.12;102529.63;5115823;28;20486;-40
2021/05/28 10:48:47;;;;;;;4.25;3.83;;;;;;;16.23;57.70;102527.25;5118072;28;20039;-40
2021/05/28 10:51:22;;;;;;;4.20;3.63;;;;;;;16.16;56.41;102537.44;5115425;28;20120;-40
2021/05/28 10:53:50;;;;;;;6.40;4.05;;;;;;;16.41;57.71;102526.44;5115189;28;20032;-41
2021/05/28 10:56:19;;;;;;;5.55;4.25;;;;;;;16.48;56.09;102527.16;5115602;28;20112;-40
2021/05/28 10:58:56;;;;;;;4.50;4.00;;;;;;;16.42;56.17;102530.81;5114853;28;20019;-41
2021/05/28 11:01:33;;;;;;;;;;;;;;;16.66;57.44;102527.13;5115355;28;20032;-41
2021/05/28 11:03:59;;;;;;;8.30;4.13;;;;;;;16.45;56.75;102528.47;5115695;28;19973;-41
2021/05/28 11:06:25;;;;;;;5.43;3.80;;;;;;;16.45;55.75;102524.91;5115437;28;20078;-40
2021/05/28 11:09:02;;;;;;;4.55;4.07;;;;;;;16.30;54.59;102532.63;5115104;28;20118;-40
2021/05/28 11:11:36;;;;;;;4.78;4.28;;;;;;;16.08;56.18;102532.28;5115074;28;20036;-40
2021/05/28 11:14:09;;;;;;;4.32;3.92;;;;;;;15.89;55.73;102531.41;5114919;28;20032;-40
2021/05/28 11:16:53;;;;;;;5.88;4.40;;;;;;;16.00;56.29;102529.81;5115398;28;20444;-40
2021/05/28 11:19:25;;;;;;;4.60;3.80;;;;;;;16.14;56.11;102531.34;5114755;28;20039;-40
2021/05/28 11:22:32;;;;;;;6.07;4.95;;;;;;;16.21;59.04;102532.13;5114611;28;20046;-40
2021/05/28 11:25:01;;;;;;;5.75;4.50;;;;;;;16.13;56.61;102524.22;5054188;28;20044;-40
2021/05/28 11:27:27;;;;;;;5.30;4.80;;;;;;;16.04;56.83;102520.13;5056418;28;20048;-40
2021/05/28 11:30:04;;;;;;;5.40;4.90;;;;;;;16.39;57.16;102514.88;5073784;28;20041;-40
2021/05/28 11:32:55;;;;;;;5.47;4.97;;;;;;;16.80;56.35;102510.59;5074027;28;20025;-40